Time,TemperatureF,DewpointF,PressureIn,WindDirection,WindDirectionDegrees,WindSpeedMPH,WindSpeedGustMPH,Humidity,HourlyPrecipIn,Conditions,Clouds,dailyrainin,SoftwareType,DateUTC
2013-04-27 00:00:00,30.0,26.0,30.45,NNW,344,0.0,0.0,85,0.00,,,0.00,Wunderground v.1.13,2013-04-27 04:00:00,
2013-04-27 00:30:00,29.3,25.6,30.45,NNW,344,0.0,0.0,86,0.00,,,0.00,Wunderground v.1.13,2013-04-27 04:30:00,
2013-04-27 01:00:00,28.8,26.0,30.46,NNW,344,0.0,0.0,89,0.00,,,0.00,Wunderground v.1.13,2013-04-27 05:00:00,
2013-04-27 01:30:00,28.4,25.6,30.45,NNW,344,0.0,0.0,89,0.00,,,0.00,Wunderground v.1.13,2013-04-27 05:30:00,
2013-04-27 02:00:00,28.0,25.4,30.45,NNW,344,0.0,0.0,90,0.00,,,0.00,Wunderground v.1.13,2013-04-27 06:00:00,
2013-04-27 02:30:00,27.2,24.7,30.45,NNW,344,0.0,0.0,90,0.00,,,0.00,Wunderground v.1.13,2013-04-27 06:30:00,
2013-04-27 03:00:00,26.7,24.4,30.45,NNW,344,0.0,0.0,91,0.00,,,0.00,Wunderground v.1.13,2013-04-27 07:00:00,
2013-04-27 03:30:00,26.4,23.9,30.45,NNW,344,0.0,0.0,90,0.00,,,0.00,Wunderground v.1.13,2013-04-27 07:30:00,
2013-04-27 04:00:00,25.7,23.4,30.45,NNW,344,0.0,0.0,91,0.00,,,0.00,Wunderground v.1.13,2013-04-27 08:00:00,
2013-04-27 04:30:00,25.5,23.5,30.44,NNW,344,0.0,0.0,92,0.00,,,0.00,Wunderground v.1.13,2013-04-27 08:30:00,
2013-04-27 05:00:00,24.9,22.9,30.44,NNW,344,0.0,0.0,92,0.00,,,0.00,Wunderground v.1.13,2013-04-27 09:00:00,
2013-04-27 05:30:00,24.6,22.9,30.45,NNW,344,0.0,0.0,93,0.00,,,0.00,Wunderground v.1.13,2013-04-27 09:30:00,
2013-04-27 06:00:00,24.4,22.9,30.44,NNW,344,0.0,0.0,94,0.00,,,0.00,Wunderground v.1.13,2013-04-27 10:00:00,
2013-04-27 06:30:00,25.0,23.8,30.44,NNW,344,0.0,0.0,95,0.00,,,0.00,Wunderground v.1.13,2013-04-27 10:30:00,
2013-04-27 07:00:00,28.1,26.3,30.45,NNW,344,0.0,1.0,93,0.00,,,0.00,Wunderground v.1.13,2013-04-27 11:00:00,
2013-04-27 07:30:00,31.4,28.0,30.45,NNW,344,0.0,2.0,87,0.00,,,0.00,Wunderground v.1.13,2013-04-27 11:30:00,
2013-04-27 08:00:00,34.8,29.3,30.44,NW,323,1.0,2.0,80,0.00,,,0.00,Wunderground v.1.13,2013-04-27 12:00:00,
2013-04-27 08:30:00,37.1,29.6,30.44,NW,319,1.0,1.0,74,0.00,,,0.00,Wunderground v.1.13,2013-04-27 12:30:00,
2013-04-27 09:00:00,41.1,30.6,30.43,SSW,205,1.0,1.0,66,0.00,,,0.00,Wunderground v.1.13,2013-04-27 13:00:00,
2013-04-27 09:30:00,45.0,30.2,30.43,ESE,109,1.0,1.0,56,0.00,,,0.00,Wunderground v.1.13,2013-04-27 13:30:00,
2013-04-27 10:00:00,47.7,28.9,30.42,South,184,2.0,2.0,48,0.00,,,0.00,Wunderground v.1.13,2013-04-27 14:00:00,
2013-04-27 10:30:00,50.2,30.2,30.41,SSW,198,1.0,1.0,46,0.00,,,0.00,Wunderground v.1.13,2013-04-27 14:30:00,
2013-04-27 11:00:00,52.4,31.1,30.40,ESE,109,2.0,3.0,44,0.00,,,0.00,Wunderground v.1.13,2013-04-27 15:00:00,
2013-04-27 11:30:00,54.6,27.5,30.39,ENE,78,2.0,7.0,35,0.00,,,0.00,Wunderground v.1.13,2013-04-27 15:30:00,
2013-04-27 12:00:00,56.0,30.1,30.38,SE,133,2.0,2.0,37,0.00,,,0.00,Wunderground v.1.13,2013-04-27 16:00:00,
2013-04-27 12:30:00,57.2,27.6,30.37,South,179,3.0,4.0,32,0.00,,,0.00,Wunderground v.1.13,2013-04-27 16:30:00,
2013-04-27 13:00:00,58.2,25.2,30.35,South,175,4.0,7.0,28,0.00,,,0.00,Wunderground v.1.13,2013-04-27 17:00:00,
2013-04-27 13:30:00,58.5,24.6,30.35,North,5,2.0,2.0,27,0.00,,,0.00,Wunderground v.1.13,2013-04-27 17:30:00,
2013-04-27 14:00:00,59.4,24.5,30.34,SE,144,3.0,3.0,26,0.00,,,0.00,Wunderground v.1.13,2013-04-27 18:00:00,
2013-04-27 14:30:00,60.5,25.4,30.33,East,98,2.0,6.0,26,0.00,,,0.00,Wunderground v.1.13,2013-04-27 18:30:00,
2013-04-27 15:00:00,60.7,22.6,30.32,NE,45,3.0,3.0,23,0.00,,,0.00,Wunderground v.1.13,2013-04-27 19:00:00,
2013-04-27 15:30:00,61.6,24.4,30.31,WNW,298,1.0,1.0,24,0.00,,,0.00,Wunderground v.1.13,2013-04-27 19:30:00,
2013-04-27 16:30:00,61.8,24.6,30.29,NNW,330,1.0,1.0,24,0.00,,,0.00,Wunderground v.1.13,2013-04-27 20:30:00,
2013-04-27 17:00:00,61.7,22.4,30.29,East,80,0.0,0.0,22,0.00,,,0.00,Wunderground v.1.13,2013-04-27 21:00:00,
2013-04-27 17:30:00,61.2,22.0,30.28,ENE,65,1.0,1.0,22,0.00,,,0.00,Wunderground v.1.13,2013-04-27 21:30:00,
2013-04-27 18:00:00,60.9,21.8,30.28,SE,146,1.0,1.0,22,0.00,,,0.00,Wunderground v.1.13,2013-04-27 22:00:00,
2013-04-27 18:30:00,60.4,24.4,30.28,SSE,164,0.0,0.0,25,0.00,,,0.00,Wunderground v.1.13,2013-04-27 22:30:00,
2013-04-27 19:00:00,56.2,26.7,30.28,SSE,164,0.0,0.0,32,0.00,,,0.00,Wunderground v.1.13,2013-04-27 23:00:00,
2013-04-27 19:30:00,47.9,28.1,30.28,SSE,164,0.0,0.0,46,0.00,,,0.00,Wunderground v.1.13,2013-04-27 23:30:00,
2013-04-27 20:00:00,42.1,28.8,30.29,SSE,164,0.0,1.0,59,0.00,,,0.00,Wunderground v.1.13,2013-04-28 00:00:00,
2013-04-27 20:30:00,39.5,27.5,30.29,SSE,164,0.0,0.0,62,0.00,,,0.00,Wunderground v.1.13,2013-04-28 00:30:00,
2013-04-27 21:00:00,37.8,27.5,30.29,SSE,164,0.0,0.0,66,0.00,,,0.00,Wunderground v.1.13,2013-04-28 01:00:00,
2013-04-27 21:30:00,36.5,26.6,30.30,SSE,164,0.0,0.0,67,0.00,,,0.00,Wunderground v.1.13,2013-04-28 01:30:00,
2013-04-27 22:00:00,35.0,27.2,30.31,South,169,0.0,0.0,73,0.00,,,0.00,Wunderground v.1.13,2013-04-28 02:00:00,
2013-04-27 22:30:00,35.1,27.0,30.31,SSW,194,0.0,0.0,72,0.00,,,0.00,Wunderground v.1.13,2013-04-28 02:30:00,
2013-04-27 23:00:00,34.0,26.9,30.31,SSW,203,0.0,2.0,75,0.00,,,0.00,Wunderground v.1.13,2013-04-28 03:00:00,
2013-04-27 23:30:00,32.1,27.2,30.32,SSW,194,0.0,0.0,82,0.00,,,0.00,Wunderground v.1.13,2013-04-28 03:30:00,